createdAt,value
2023-04-19T00:00:31.693Z,19.50
2023-04-19T00:03:03.660Z,18.17
2023-04-19T00:05:35.608Z,17.20
2023-04-19T00:08:07.520Z,14.87
2023-04-19T00:10:40.074Z,16.67
2023-04-19T00:13:12.514Z,17.50
2023-04-19T00:15:44.334Z,17.87
2023-04-19T00:18:16.096Z,22.23
2023-04-19T00:20:48.811Z,20.37
2023-04-19T00:23:20.512Z,16.30
2023-04-19T00:25:52.275Z,20.77
2023-04-19T00:28:25.309Z,17.20
2023-04-19T00:30:57.344Z,16.43
2023-04-19T00:33:30.098Z,17.83
2023-04-19T00:36:01.852Z,17.60
2023-04-19T00:38:33.629Z,19.53
2023-04-19T00:41:05.386Z,18.23
2023-04-19T00:43:37.169Z,20.40
2023-04-19T00:46:08.908Z,20.70
2023-04-19T00:48:40.866Z,19.13
2023-04-19T00:51:13.029Z,17.37
2023-04-19T00:53:45.034Z,20.40
2023-04-19T00:56:17.742Z,17.07
2023-04-19T00:58:49.565Z,19.88
2023-04-19T01:01:21.404Z,19.10
2023-04-19T01:03:53.507Z,16.87
2023-04-19T01:06:27.842Z,18.47
2023-04-19T01:08:59.611Z,20.50
2023-04-19T01:11:31.292Z,17.43
2023-04-19T01:14:03.076Z,22.87
2023-04-19T01:16:36.354Z,25.67
2023-04-19T01:19:09.195Z,18.97
2023-04-19T01:21:42.243Z,21.13
2023-04-19T01:24:14.129Z,15.70
2023-04-19T01:26:46.117Z,19.60
2023-04-19T01:29:18.812Z,20.53
2023-04-19T01:31:54.071Z,20.30
2023-04-19T01:34:26.049Z,20.00
2023-04-19T01:36:57.745Z,20.70
2023-04-19T01:39:30.020Z,22.63
2023-04-19T01:42:02.976Z,22.33
2023-04-19T01:44:34.699Z,17.30
2023-04-19T01:47:06.612Z,21.50
2023-04-19T01:49:38.447Z,26.00
2023-04-19T01:52:10.160Z,22.10
2023-04-19T01:54:41.893Z,20.43
2023-04-19T01:57:16.339Z,21.13
2023-04-19T01:59:48.109Z,18.17
2023-04-19T02:02:20.353Z,29.97
2023-04-19T02:04:52.124Z,23.90
2023-04-19T02:07:23.809Z,17.73
2023-04-19T02:09:55.648Z,23.60
2023-04-19T02:12:33.786Z,21.13
2023-04-19T02:15:06.261Z,19.10
2023-04-19T02:17:38.993Z,20.27
2023-04-19T02:20:11.061Z,20.73
2023-04-19T02:22:43.793Z,21.77
2023-04-19T02:25:16.702Z,22.47
2023-04-19T02:27:48.456Z,20.23
2023-04-19T02:30:20.563Z,23.70
2023-04-19T02:32:52.372Z,21.03
2023-04-19T02:35:24.169Z,17.67
2023-04-19T02:37:55.929Z,20.70
2023-04-19T02:40:27.581Z,21.40
2023-04-19T02:42:59.583Z,20.77
2023-04-19T02:45:31.533Z,21.57
2023-04-19T02:48:03.434Z,18.80
2023-04-19T02:50:37.412Z,22.47
2023-04-19T02:53:09.162Z,23.92
2023-04-19T02:55:41.000Z,23.70
2023-04-19T02:58:13.610Z,22.43
2023-04-19T03:00:45.302Z,18.77
2023-04-19T03:03:17.172Z,24.20
2023-04-19T03:05:49.056Z,22.93
2023-04-19T03:08:20.824Z,23.70
2023-04-19T03:10:52.544Z,21.87
2023-04-19T03:13:24.266Z,20.50
2023-04-19T03:15:56.248Z,22.30
2023-04-19T03:18:27.993Z,23.03
2023-04-19T03:20:59.756Z,20.73
2023-04-19T03:23:31.505Z,25.33
2023-04-19T03:26:03.952Z,28.73
2023-04-19T03:28:35.702Z,23.70
2023-04-19T03:31:07.485Z,32.90
2023-04-19T03:33:39.637Z,27.40
2023-04-19T03:36:11.369Z,25.50
2023-04-19T03:38:44.462Z,22.53
2023-04-19T03:41:26.884Z,26.03
2023-04-19T03:43:58.897Z,21.90
2023-04-19T03:46:31.692Z,27.33
2023-04-19T03:49:03.508Z,24.95
2023-04-19T03:51:36.419Z,25.10
2023-04-19T03:54:08.137Z,27.73
2023-04-19T03:56:39.895Z,29.53
2023-04-19T03:59:11.594Z,25.00
2023-04-19T04:01:43.377Z,25.90
2023-04-19T04:04:15.476Z,27.63
2023-04-19T04:06:47.696Z,26.20
2023-04-19T04:09:19.444Z,32.57
2023-04-19T04:11:51.147Z,34.87
2023-04-19T04:14:23.812Z,34.17
2023-04-19T04:16:55.595Z,26.33
2023-04-19T04:19:27.315Z,27.57
2023-04-19T04:21:59.002Z,30.30
2023-04-19T04:24:32.933Z,29.93
2023-04-19T04:27:04.848Z,28.30
2023-04-19T04:29:37.558Z,28.23
2023-04-19T04:32:10.520Z,33.00
2023-04-19T04:34:43.138Z,30.37
2023-04-19T04:37:14.876Z,26.67
2023-04-19T04:39:46.580Z,29.57
2023-04-19T04:42:21.438Z,29.80
2023-04-19T04:44:53.509Z,29.70
2023-04-19T04:47:26.178Z,32.10
2023-04-19T04:49:58.557Z,30.83
2023-04-19T04:52:30.558Z,36.83
2023-04-19T04:55:02.296Z,34.33
2023-04-19T04:57:34.077Z,32.80
2023-04-19T05:00:06.958Z,30.20
2023-04-19T05:02:38.748Z,33.40
2023-04-19T05:05:11.358Z,27.83
2023-04-19T05:07:43.077Z,28.07
2023-04-19T05:10:14.953Z,37.83
2023-04-19T05:12:46.674Z,31.10
2023-04-19T05:15:18.382Z,31.53
2023-04-19T05:17:50.392Z,30.00
2023-04-19T05:20:22.164Z,35.40
2023-04-19T05:22:58.473Z,33.87
2023-04-19T05:25:30.321Z,28.80
2023-04-19T05:28:03.597Z,26.43
2023-04-19T05:30:35.389Z,27.77
2023-04-19T05:33:07.190Z,29.17
2023-04-19T05:35:39.042Z,27.13
2023-04-19T05:38:10.976Z,29.60
2023-04-19T05:40:42.682Z,30.13
2023-04-19T05:43:14.401Z,30.63
2023-04-19T05:45:46.082Z,31.57
2023-04-19T05:48:17.808Z,32.73
2023-04-19T05:50:49.532Z,29.67
2023-04-19T05:53:21.283Z,35.50
2023-04-19T05:55:53.055Z,25.33
2023-04-19T05:58:24.827Z,35.40
2023-04-19T06:00:56.597Z,30.50
2023-04-19T06:03:31.152Z,27.30
2023-04-19T06:06:04.308Z,28.20
2023-04-19T06:08:36.076Z,32.17
2023-04-19T06:11:15.907Z,28.97
2023-04-19T06:13:54.851Z,28.97
2023-04-19T06:16:26.853Z,30.33
2023-04-19T06:18:58.618Z,31.60
2023-04-19T06:21:31.728Z,23.03
2023-04-19T06:24:03.701Z,26.90
2023-04-19T06:26:35.500Z,31.60
2023-04-19T06:29:07.170Z,25.40
2023-04-19T06:31:39.060Z,25.67
2023-04-19T06:34:11.196Z,25.97
2023-04-19T06:36:42.985Z,27.53
2023-04-19T06:39:15.416Z,26.83
2023-04-19T06:41:47.142Z,27.00
2023-04-19T06:44:19.256Z,30.63
2023-04-19T06:46:50.945Z,24.63
2023-04-19T06:49:22.761Z,24.90
2023-04-19T06:51:54.550Z,27.10
2023-04-19T06:54:26.286Z,28.93
2023-04-19T06:56:58.038Z,24.77
2023-04-19T06:59:31.862Z,22.87
2023-04-19T07:02:03.743Z,25.10
2023-04-19T07:04:37.128Z,24.70
2023-04-19T07:07:09.005Z,21.87
2023-04-19T07:09:40.724Z,23.07
2023-04-19T07:12:12.535Z,23.48
2023-04-19T07:14:44.305Z,25.63
2023-04-19T07:17:18.156Z,24.10
2023-04-19T07:19:49.984Z,25.57
2023-04-19T07:22:22.304Z,25.50
2023-04-19T07:24:54.671Z,22.97
2023-04-19T07:27:26.391Z,20.80
2023-04-19T07:29:58.065Z,19.87
2023-04-19T07:32:31.433Z,22.50
2023-04-19T07:35:03.324Z,22.90
2023-04-19T07:37:35.064Z,21.83
2023-04-19T07:40:07.431Z,23.73
2023-04-19T07:42:39.264Z,23.53
2023-04-19T07:45:11.733Z,20.40
2023-04-19T07:47:43.444Z,21.93
2023-04-19T07:50:16.071Z,25.00
2023-04-19T07:52:47.791Z,23.70
2023-04-19T07:55:19.668Z,19.83
2023-04-19T07:57:51.381Z,17.97
2023-04-19T08:00:23.405Z,22.67
2023-04-19T08:02:55.940Z,20.50
2023-04-19T08:05:27.998Z,21.90
2023-04-19T08:07:59.856Z,21.80
2023-04-19T08:10:31.824Z,20.50
2023-04-19T08:13:05.893Z,20.30
2023-04-19T08:16:20.482Z,18.47
2023-04-19T08:18:30.669Z,23.03
2023-04-19T08:21:02.339Z,23.83
2023-04-19T08:23:45.062Z,20.53
2023-04-19T08:26:19.879Z,19.10
2023-04-19T08:28:52.311Z,19.10
2023-04-19T08:31:24.020Z,22.43
2023-04-19T08:33:55.848Z,22.20
2023-04-19T08:36:37.529Z,20.37
2023-04-19T08:39:29.205Z,21.43
2023-04-19T08:42:13.300Z,17.97
2023-04-19T08:45:25.467Z,20.03
2023-04-19T08:47:59.767Z,18.63
2023-04-19T08:50:42.739Z,17.60
2023-04-19T08:53:26.105Z,19.50
2023-04-19T08:56:12.652Z,15.90
2023-04-19T08:59:03.954Z,20.23
2023-04-19T09:01:43.657Z,16.43
2023-04-19T09:04:35.775Z,13.50
2023-04-19T09:07:10.767Z,20.47
2023-04-19T09:09:55.427Z,16.10
2023-04-19T09:12:31.578Z,17.00
2023-04-19T09:15:04.906Z,13.40
2023-04-19T09:17:37.473Z,14.27
2023-04-19T09:20:09.523Z,13.87
2023-04-19T09:22:41.291Z,13.77
2023-04-19T09:25:46.483Z,15.33
2023-04-19T09:28:17.759Z,11.80
2023-04-19T09:31:02.368Z,12.50
2023-04-19T09:33:39.383Z,14.40
2023-04-19T09:36:12.652Z,12.10
2023-04-19T09:38:50.292Z,14.93
2023-04-19T09:41:22.160Z,11.63
2023-04-19T09:44:07.766Z,14.40
2023-04-19T09:46:50.917Z,12.30
2023-04-19T09:49:37.631Z,12.30
2023-04-19T09:52:16.725Z,11.70
2023-04-19T09:54:49.022Z,12.07
2023-04-19T09:57:20.810Z,12.17
2023-04-19T09:59:52.548Z,11.37
2023-04-19T10:02:26.189Z,11.87
2023-04-19T10:05:16.288Z,11.10
2023-04-19T10:07:54.176Z,12.90
2023-04-19T10:13:18.988Z,15.33
2023-04-19T10:15:55.589Z,13.83
2023-04-19T10:18:34.193Z,12.40
2023-04-19T10:21:08.431Z,12.93
2023-04-19T10:23:40.624Z,11.73
2023-04-19T10:26:12.370Z,14.88
2023-04-19T10:28:44.115Z,11.53
2023-04-19T10:31:23.777Z,16.37
2023-04-19T10:33:55.676Z,16.43
2023-04-19T10:36:28.591Z,18.67
2023-04-19T10:39:01.364Z,13.50
2023-04-19T10:42:02.136Z,12.50
2023-04-19T10:44:33.918Z,13.20
2023-04-19T10:47:06.075Z,14.60
2023-04-19T10:49:47.294Z,14.83
2023-04-19T10:52:31.460Z,16.40
2023-04-19T10:55:05.607Z,16.70
2023-04-19T10:58:03.968Z,12.97
2023-04-19T11:00:36.713Z,12.30
2023-04-19T11:03:50.857Z,12.67
2023-04-19T11:06:27.059Z,13.70
2023-04-19T11:08:59.454Z,12.60
2023-04-19T11:11:37.410Z,13.30
2023-04-19T11:14:10.026Z,15.33
2023-04-19T11:16:45.689Z,12.40
2023-04-19T11:19:19.285Z,13.47
2023-04-19T11:21:51.288Z,12.93
2023-04-19T11:24:22.946Z,15.20
2023-04-19T11:26:57.556Z,15.53
2023-04-19T11:29:29.292Z,14.40
2023-04-19T11:32:01.022Z,12.23
2023-04-19T11:34:37.929Z,13.47
2023-04-19T11:37:11.305Z,12.80
2023-04-19T11:39:47.563Z,14.43
2023-04-19T11:42:22.141Z,15.13
2023-04-19T11:44:57.352Z,13.90
2023-04-19T11:47:29.307Z,14.63
2023-04-19T11:50:38.284Z,12.03
2023-04-19T11:53:16.801Z,15.57
2023-04-19T11:56:10.346Z,14.50
2023-04-19T11:58:48.374Z,14.77
2023-04-19T12:01:21.955Z,17.10
2023-04-19T12:03:56.638Z,15.43
2023-04-19T12:06:31.904Z,15.47
2023-04-19T12:09:09.244Z,14.57
2023-04-19T12:11:47.048Z,13.50
2023-04-19T12:14:22.720Z,16.87
2023-04-19T12:17:15.719Z,15.93
2023-04-19T12:19:48.054Z,13.83
2023-04-19T12:22:24.273Z,17.90
2023-04-19T12:24:56.012Z,18.47
2023-04-19T12:27:27.725Z,15.70
2023-04-19T12:29:59.435Z,19.33
2023-04-19T12:32:31.144Z,19.40
2023-04-19T12:35:04.094Z,21.30
2023-04-19T12:37:35.857Z,18.77
2023-04-19T12:40:08.179Z,18.77
2023-04-19T12:42:39.860Z,19.70
2023-04-19T12:45:13.511Z,22.10
2023-04-19T12:47:47.226Z,20.80
2023-04-19T12:50:19.067Z,20.03
2023-04-19T12:52:53.546Z,19.63
2023-04-19T12:55:25.362Z,20.23
2023-04-19T12:57:57.104Z,25.40
2023-04-19T13:00:30.184Z,23.50
2023-04-19T13:03:02.078Z,24.10
2023-04-19T13:05:34.057Z,19.30
2023-04-19T13:08:06.161Z,25.37
2023-04-19T13:10:37.890Z,27.77
2023-04-19T13:13:09.596Z,27.90
2023-04-19T13:15:42.038Z,31.10
2023-04-19T13:18:13.905Z,28.07
2023-04-19T13:20:46.393Z,33.37
2023-04-19T13:23:18.163Z,32.50
2023-04-19T13:25:49.843Z,35.47
2023-04-19T13:28:21.559Z,43.10
2023-04-19T13:30:53.857Z,41.93
2023-04-19T13:33:26.950Z,39.50
2023-04-19T13:35:58.714Z,41.47
2023-04-19T13:38:30.738Z,39.77
2023-04-19T13:41:04.003Z,42.10
2023-04-19T13:43:35.699Z,38.00
2023-04-19T13:46:07.512Z,40.90
2023-04-19T13:48:39.276Z,40.63
2023-04-19T13:51:11.056Z,36.13
2023-04-19T13:53:42.771Z,40.30
2023-04-19T13:56:15.102Z,41.00
2023-04-19T13:58:46.846Z,37.20
2023-04-19T14:01:18.744Z,38.57
2023-04-19T14:03:50.724Z,35.10
2023-04-19T14:06:22.648Z,43.73
2023-04-19T14:08:54.442Z,35.37
2023-04-19T14:11:26.367Z,35.03
2023-04-19T14:13:58.271Z,34.90
2023-04-19T14:16:31.254Z,36.57
2023-04-19T14:19:03.043Z,33.57
2023-04-19T14:21:34.851Z,34.07
2023-04-19T14:24:06.652Z,30.43
2023-04-19T14:26:38.408Z,37.30
2023-04-19T14:29:10.689Z,38.93
2023-04-19T14:31:42.478Z,32.87
2023-04-19T14:34:14.329Z,31.63
2023-04-19T14:36:46.175Z,33.80
2023-04-19T14:39:18.319Z,26.90
2023-04-19T14:41:50.141Z,34.03
2023-04-19T14:44:21.870Z,29.40
2023-04-19T14:46:53.664Z,29.90
2023-04-19T14:49:25.363Z,28.97
2023-04-19T14:51:57.095Z,28.33
2023-04-19T14:54:29.601Z,31.83
2023-04-19T14:57:02.257Z,28.13
2023-04-19T14:59:34.031Z,28.33
2023-04-19T15:02:05.948Z,28.40
2023-04-19T15:04:40.600Z,27.13
2023-04-19T15:07:12.908Z,27.80
2023-04-19T15:09:44.678Z,23.13
2023-04-19T15:12:16.556Z,27.67
2023-04-19T15:14:48.283Z,22.07
2023-04-19T15:17:19.969Z,21.13
2023-04-19T15:19:51.837Z,25.07
2023-04-19T15:22:23.662Z,22.03
2023-04-19T15:24:55.552Z,25.37
2023-04-19T15:27:27.418Z,23.60
2023-04-19T15:29:59.187Z,25.20
2023-04-19T15:32:34.204Z,22.57
2023-04-19T15:35:06.456Z,25.43
2023-04-19T15:37:39.544Z,27.80
2023-04-19T15:40:14.229Z,26.60
2023-04-19T15:42:46.418Z,25.70
2023-04-19T15:45:18.751Z,25.73
2023-04-19T15:47:50.546Z,22.43
2023-04-19T15:50:22.413Z,24.13
2023-04-19T15:52:55.226Z,30.80
2023-04-19T15:55:26.969Z,23.77
2023-04-19T15:57:58.633Z,25.90
2023-04-19T16:00:30.895Z,27.23
2023-04-19T16:03:02.843Z,22.30
2023-04-19T16:05:35.121Z,26.40
2023-04-19T16:08:11.664Z,25.02
2023-04-19T16:10:48.286Z,26.83
2023-04-19T16:13:20.559Z,27.13
2023-04-19T16:15:52.239Z,27.47
2023-04-19T16:18:23.978Z,25.20
2023-04-19T16:20:55.833Z,25.77
2023-04-19T16:23:27.577Z,24.30
2023-04-19T16:25:59.382Z,25.43
2023-04-19T16:28:31.086Z,26.37
2023-04-19T16:31:02.829Z,22.87
2023-04-19T16:33:34.578Z,25.70
2023-04-19T16:36:06.370Z,23.10
2023-04-19T16:38:38.106Z,24.60
2023-04-19T16:41:11.430Z,26.20
2023-04-19T16:43:43.210Z,26.47
2023-04-19T16:46:15.324Z,23.53
2023-04-19T16:48:47.214Z,29.30
2023-04-19T16:51:18.938Z,27.63
2023-04-19T16:53:50.657Z,24.17
2023-04-19T16:56:22.607Z,24.60
2023-04-19T16:58:56.414Z,23.17
2023-04-19T17:01:28.257Z,24.87
2023-04-19T17:04:00.240Z,24.20
2023-04-19T17:06:33.434Z,21.70
2023-04-19T17:09:05.340Z,20.53
2023-04-19T17:11:37.334Z,23.97
2023-04-19T17:14:09.052Z,25.00
2023-04-19T17:16:41.010Z,20.97
2023-04-19T17:19:12.697Z,23.83
2023-04-19T17:21:44.464Z,27.50
2023-04-19T17:24:16.177Z,21.47
2023-04-19T17:26:47.831Z,24.70
2023-04-19T17:29:19.635Z,22.33
2023-04-19T17:31:51.397Z,27.13
2023-04-19T17:34:23.140Z,28.07
2023-04-19T17:36:54.827Z,27.13
2023-04-19T17:39:27.961Z,27.63
2023-04-19T17:42:01.657Z,26.43
2023-04-19T17:44:33.496Z,27.97
2023-04-19T17:47:05.284Z,24.07
2023-04-19T17:49:37.068Z,24.13
2023-04-19T17:52:08.746Z,23.40
2023-04-19T17:54:41.116Z,26.90
2023-04-19T17:57:12.824Z,23.13
2023-04-19T17:59:49.682Z,22.77
2023-04-19T18:02:22.249Z,39.05
2023-04-19T18:04:54.342Z,28.67
2023-04-19T18:07:26.304Z,23.50
2023-04-19T18:09:58.005Z,25.20
2023-04-19T18:12:30.021Z,23.10
2023-04-19T18:15:02.868Z,22.90
2023-04-19T18:17:35.953Z,26.30
2023-04-19T18:20:08.391Z,24.70
2023-04-19T18:22:40.211Z,25.67
2023-04-19T18:25:12.055Z,21.77
2023-04-19T18:27:43.863Z,22.17
2023-04-19T18:30:15.664Z,29.97
2023-04-19T18:32:47.723Z,24.13
2023-04-19T18:35:19.460Z,23.80
2023-04-19T18:37:51.272Z,26.17
2023-04-19T18:40:23.088Z,23.30
2023-04-19T18:42:55.293Z,25.90
2023-04-19T18:45:28.831Z,22.17
2023-04-19T18:48:01.268Z,21.73
2023-04-19T18:50:34.084Z,17.23
2023-04-19T18:53:05.922Z,14.80
2023-04-19T18:55:37.648Z,11.37
2023-04-19T18:58:09.436Z,10.30
2023-04-19T19:00:41.198Z,7.63
2023-04-19T19:03:33.892Z,7.23
2023-04-19T19:06:04.773Z,9.63
2023-04-19T19:08:36.797Z,6.43
2023-04-19T19:11:33.162Z,6.27
2023-04-19T19:14:00.395Z,8.00
2023-04-19T19:16:32.266Z,5.23
2023-04-19T19:19:06.888Z,6.30
2023-04-19T19:21:38.685Z,7.57
2023-04-19T19:24:10.429Z,6.37
2023-04-19T19:26:42.200Z,5.47
2023-04-19T19:29:16.229Z,7.40
2023-04-19T19:31:48.559Z,6.35
2023-04-19T19:34:28.905Z,14.10
2023-04-19T19:37:02.097Z,5.30
2023-04-19T19:39:34.431Z,5.97
2023-04-19T19:42:07.463Z,5.83
2023-04-19T19:44:39.391Z,4.90
2023-04-19T19:47:11.393Z,6.07
2023-04-19T19:52:18.011Z,6.20
2023-04-19T19:54:49.839Z,7.30
2023-04-19T19:58:14.115Z,5.30
2023-04-19T20:00:39.878Z,8.20
2023-04-19T20:03:09.449Z,6.80
2023-04-19T20:05:41.602Z,5.70
2023-04-19T20:08:14.064Z,6.50
2023-04-19T20:10:45.976Z,6.43
2023-04-19T20:13:17.834Z,5.60
2023-04-19T20:15:49.687Z,13.20
2023-04-19T20:18:21.364Z,7.37
2023-04-19T20:20:53.077Z,5.70
2023-04-19T20:23:24.826Z,6.93
2023-04-19T20:25:57.459Z,6.57
2023-04-19T20:28:29.153Z,6.70
2023-04-19T20:31:01.141Z,7.00
2023-04-19T20:33:32.830Z,7.80
2023-04-19T20:36:04.747Z,5.83
2023-04-19T20:38:36.444Z,6.63
2023-04-19T20:41:08.312Z,6.43
2023-04-19T20:43:39.982Z,6.57
2023-04-19T20:46:11.813Z,6.50
2023-04-19T20:48:43.580Z,6.50
2023-04-19T20:51:16.371Z,6.27
2023-04-19T20:53:48.072Z,6.13
2023-04-19T20:56:19.839Z,6.70
2023-04-19T20:58:51.604Z,6.07
2023-04-19T21:01:24.486Z,5.60
2023-04-19T21:03:56.506Z,7.87
2023-04-19T21:06:28.537Z,7.30
2023-04-19T21:09:00.240Z,5.83
2023-04-19T21:11:31.901Z,6.90
2023-04-19T21:14:03.701Z,6.30
2023-04-19T21:16:35.592Z,7.90
2023-04-19T21:19:07.557Z,6.37
2023-04-19T21:21:39.358Z,5.83
2023-04-19T21:24:11.084Z,6.77
2023-04-19T21:26:42.765Z,7.40
2023-04-19T21:29:14.516Z,6.70
2023-04-19T21:31:46.506Z,6.40
2023-04-19T21:34:18.272Z,6.88
2023-04-19T21:36:49.985Z,8.67
2023-04-19T21:39:21.715Z,6.83
2023-04-19T21:41:53.496Z,5.80
2023-04-19T21:44:25.300Z,7.70
2023-04-19T21:46:57.203Z,8.37
2023-04-19T21:49:28.957Z,6.80
2023-04-19T21:52:00.668Z,11.53
2023-04-19T21:54:34.387Z,5.80
2023-04-19T21:57:06.602Z,7.67
2023-04-19T21:59:38.316Z,7.47
2023-04-19T22:02:10.216Z,6.70
2023-04-19T22:04:42.137Z,5.43
2023-04-19T22:07:13.892Z,7.07
2023-04-19T22:09:46.438Z,8.43
2023-04-19T22:12:18.822Z,8.00
2023-04-19T22:14:51.340Z,7.70
2023-04-19T22:17:23.272Z,6.37
2023-04-19T22:19:55.471Z,8.73
2023-04-19T22:22:27.203Z,6.53
2023-04-19T22:24:59.036Z,5.40
2023-04-19T22:27:30.876Z,6.60
2023-04-19T22:30:03.410Z,7.07
2023-04-19T22:32:35.229Z,5.93
2023-04-19T22:35:07.634Z,9.07
2023-04-19T22:37:39.313Z,6.23
2023-04-19T22:40:12.115Z,6.97
2023-04-19T22:42:43.860Z,6.27
2023-04-19T22:45:15.668Z,7.07
2023-04-19T22:47:47.499Z,6.87
2023-04-19T22:50:19.485Z,6.90
2023-04-19T22:52:51.438Z,7.63
2023-04-19T22:55:23.212Z,6.50
2023-04-19T22:57:54.964Z,6.60
2023-04-19T23:00:26.731Z,7.90
2023-04-19T23:02:58.857Z,7.50
2023-04-19T23:05:30.881Z,7.73
2023-04-19T23:08:04.158Z,7.40
2023-04-19T23:10:38.230Z,7.80
2023-04-19T23:13:10.382Z,7.80
2023-04-19T23:15:42.281Z,6.47
2023-04-19T23:18:14.171Z,8.10
2023-04-19T23:20:46.563Z,7.47
2023-04-19T23:23:20.198Z,7.57
2023-04-19T23:25:51.904Z,7.80
2023-04-19T23:28:23.608Z,7.93
2023-04-19T23:30:55.334Z,8.30
2023-04-19T23:33:27.176Z,6.90
2023-04-19T23:35:58.911Z,7.77
2023-04-19T23:38:30.726Z,7.40
2023-04-19T23:41:02.581Z,10.63
2023-04-19T23:43:34.356Z,7.97
2023-04-19T23:46:07.112Z,7.03
2023-04-19T23:48:38.992Z,7.37
2023-04-19T23:51:12.407Z,6.67
2023-04-19T23:53:44.084Z,6.50
2023-04-19T23:56:15.929Z,7.87
2023-04-19T23:58:47.722Z,7.90
